createdAt,value
2022-08-03T00:01:35.684Z,3.95
2022-08-03T00:04:03.768Z,4.07
2022-08-03T00:06:36.462Z,4.10
2022-08-03T00:09:05.185Z,4.53
2022-08-03T00:11:33.046Z,4.03
2022-08-03T00:14:01.020Z,4.00
2022-08-03T00:16:30.368Z,3.97
2022-08-03T00:18:58.290Z,4.30
2022-08-03T00:21:29.251Z,4.07
2022-08-03T00:23:57.248Z,4.37
2022-08-03T00:26:25.155Z,4.33
2022-08-03T00:28:53.062Z,4.53
2022-08-03T00:31:32.216Z,4.20
2022-08-03T00:34:10.216Z,4.30
2022-08-03T00:36:40.678Z,4.10
2022-08-03T00:39:08.746Z,4.27
2022-08-03T00:41:36.682Z,4.27
2022-08-03T00:44:05.063Z,4.23
2022-08-03T00:46:33.006Z,4.23
2022-08-03T00:49:00.995Z,4.40
2022-08-03T00:51:30.449Z,4.40
2022-08-03T00:53:58.318Z,3.80
2022-08-03T00:56:26.242Z,4.07
2022-08-03T00:58:54.282Z,4.07
2022-08-03T01:01:22.373Z,4.20
2022-08-03T01:03:50.450Z,4.10
2022-08-03T01:06:19.368Z,4.27
2022-08-03T01:08:52.869Z,4.17
2022-08-03T01:11:25.342Z,4.37
2022-08-03T01:14:03.667Z,4.20
2022-08-03T01:16:49.252Z,4.10
2022-08-03T01:19:43.672Z,4.27
2022-08-03T01:22:31.232Z,3.90
2022-08-03T01:25:04.161Z,3.77
2022-08-03T01:27:36.611Z,4.30
2022-08-03T01:30:07.792Z,4.10
2022-08-03T01:32:59.008Z,4.10
2022-08-03T01:35:28.840Z,4.30
2022-08-03T01:37:59.513Z,4.00
2022-08-03T01:40:27.964Z,4.10
2022-08-03T01:42:56.307Z,4.27
2022-08-03T01:45:25.851Z,4.43
2022-08-03T01:47:53.774Z,4.77
2022-08-03T01:50:22.749Z,4.07
2022-08-03T01:52:50.764Z,4.37
2022-08-03T01:55:18.932Z,4.20
2022-08-03T01:58:05.785Z,4.27
2022-08-03T02:00:36.351Z,4.53
2022-08-03T02:03:04.693Z,4.50
2022-08-03T02:05:32.651Z,4.67
2022-08-03T02:08:00.593Z,4.17
2022-08-03T02:10:34.205Z,4.40
2022-08-03T02:13:04.301Z,4.40
2022-08-03T02:15:32.426Z,4.43
2022-08-03T02:18:01.815Z,4.50
2022-08-03T02:20:30.275Z,4.20
2022-08-03T02:22:58.227Z,4.33
2022-08-03T02:25:26.366Z,4.03
2022-08-03T02:27:56.735Z,4.23
2022-08-03T02:30:24.951Z,3.97
2022-08-03T02:32:54.851Z,4.40
2022-08-03T02:35:24.523Z,4.20
2022-08-03T02:37:54.078Z,4.40
2022-08-03T02:40:22.169Z,4.10
2022-08-03T02:42:51.253Z,4.50
2022-08-03T02:45:19.146Z,4.37
2022-08-03T02:47:54.005Z,4.20
2022-08-03T02:50:24.507Z,4.50
2022-08-03T02:52:52.663Z,4.67
2022-08-03T02:55:21.096Z,4.60
2022-08-03T02:57:48.952Z,4.00
2022-08-03T03:00:27.528Z,4.10
2022-08-03T03:02:57.501Z,4.93
2022-08-03T03:05:56.761Z,4.67
2022-08-03T03:08:18.694Z,4.67
2022-08-03T03:10:46.932Z,3.73
2022-08-03T03:13:15.045Z,4.10
2022-08-03T03:15:43.095Z,4.37
2022-08-03T03:18:11.059Z,3.97
2022-08-03T03:20:40.953Z,4.67
2022-08-03T03:23:09.642Z,4.13
2022-08-03T03:25:37.544Z,4.57
2022-08-03T03:28:06.394Z,4.90
2022-08-03T03:30:34.553Z,4.30
2022-08-03T03:33:02.866Z,4.47
2022-08-03T03:35:30.877Z,4.83
2022-08-03T03:38:08.054Z,4.43
2022-08-03T03:40:36.344Z,4.67
2022-08-03T03:43:04.262Z,4.27
2022-08-03T03:45:32.158Z,4.80
2022-08-03T03:48:01.205Z,4.50
2022-08-03T03:53:03.985Z,4.63
2022-08-03T03:55:33.426Z,4.80
2022-08-03T03:58:01.401Z,4.33
2022-08-03T04:00:29.412Z,4.83
2022-08-03T04:02:57.295Z,5.23
2022-08-03T04:05:45.886Z,4.90
2022-08-03T04:08:32.716Z,5.40
2022-08-03T04:11:08.586Z,5.67
2022-08-03T04:13:39.577Z,5.20
2022-08-03T04:16:08.234Z,5.33
2022-08-03T04:18:36.262Z,5.50
2022-08-03T04:21:05.092Z,4.43
2022-08-03T04:23:34.875Z,4.70
2022-08-03T04:26:04.340Z,4.70
2022-08-03T04:28:32.424Z,5.07
2022-08-03T04:31:00.604Z,4.80
2022-08-03T04:33:29.641Z,4.60
2022-08-03T04:36:02.749Z,5.03
2022-08-03T04:38:31.666Z,4.90
2022-08-03T04:40:59.628Z,4.80
2022-08-03T04:43:28.894Z,4.90
2022-08-03T04:45:56.823Z,4.97
2022-08-03T04:48:24.676Z,4.60
2022-08-03T04:50:52.498Z,5.00
2022-08-03T04:53:20.306Z,4.67
2022-08-03T04:55:48.239Z,4.93
2022-08-03T04:58:16.042Z,4.67
2022-08-03T05:00:45.623Z,5.40
2022-08-03T05:03:23.602Z,5.17
2022-08-03T05:05:52.390Z,5.07
2022-08-03T05:08:28.021Z,5.27
2022-08-03T05:10:58.807Z,5.20
2022-08-03T05:13:27.384Z,5.03
2022-08-03T05:15:56.598Z,5.70
2022-08-03T05:18:24.521Z,5.03
2022-08-03T05:20:52.346Z,4.90
2022-08-03T05:23:20.263Z,4.70
2022-08-03T05:25:50.095Z,5.37
2022-08-03T05:28:18.197Z,4.90
2022-08-03T05:30:46.393Z,5.37
2022-08-03T05:33:15.665Z,4.80
2022-08-03T05:35:57.675Z,5.07
2022-08-03T05:38:35.093Z,4.57
2022-08-03T05:41:21.408Z,5.30
2022-08-03T05:43:52.187Z,5.73
2022-08-03T05:46:21.548Z,5.70
2022-08-03T05:48:50.745Z,5.53
2022-08-03T05:51:18.660Z,4.97
2022-08-03T05:53:46.596Z,5.30
2022-08-03T05:56:16.263Z,5.03
2022-08-03T05:58:46.220Z,5.30
2022-08-03T06:01:14.154Z,5.00
2022-08-03T06:03:42.217Z,5.07
2022-08-03T06:06:11.618Z,4.60
2022-08-03T06:08:39.874Z,5.05
2022-08-03T06:11:07.744Z,5.40
2022-08-03T06:13:35.677Z,5.28
2022-08-03T06:16:03.543Z,5.72
2022-08-03T06:18:31.508Z,5.25
2022-08-03T06:21:09.595Z,5.22
2022-08-03T06:23:53.963Z,5.13
2022-08-03T06:26:26.646Z,5.03
2022-08-03T06:28:54.980Z,5.13
2022-08-03T06:31:26.090Z,4.13
2022-08-03T06:34:33.306Z,5.00
2022-08-03T06:36:51.191Z,4.03
2022-08-03T06:39:23.651Z,3.80
2022-08-03T06:41:52.728Z,4.53
2022-08-03T06:44:20.945Z,4.20
2022-08-03T06:46:48.797Z,3.65
2022-08-03T06:49:16.923Z,4.15
2022-08-03T06:52:05.424Z,4.28
2022-08-03T06:54:37.553Z,4.20
2022-08-03T06:57:06.457Z,4.25
2022-08-03T07:00:07.591Z,4.03
2022-08-03T07:02:22.175Z,4.03
2022-08-03T07:04:50.146Z,3.53
2022-08-03T07:07:19.382Z,4.30
2022-08-03T07:09:54.957Z,3.55
2022-08-03T07:12:29.194Z,3.22
2022-08-03T07:15:00.751Z,3.33
2022-08-03T07:17:29.617Z,3.20
2022-08-03T07:19:57.829Z,2.88
2022-08-03T07:22:25.680Z,3.17
2022-08-03T07:24:54.880Z,2.85
2022-08-03T07:27:22.712Z,3.20
2022-08-03T07:29:50.626Z,2.88
2022-08-03T07:32:18.864Z,2.97
2022-08-03T07:34:46.978Z,2.53
2022-08-03T07:37:14.821Z,2.70
2022-08-03T07:39:42.797Z,2.83
2022-08-03T07:42:12.001Z,3.25
2022-08-03T07:44:40.571Z,3.05
2022-08-03T07:47:08.416Z,2.60
2022-08-03T07:49:41.107Z,3.20
2022-08-03T07:52:28.333Z,2.90
2022-08-03T07:54:56.451Z,2.75
2022-08-03T07:57:25.793Z,3.00
2022-08-03T07:59:57.118Z,2.95
2022-08-03T08:02:30.123Z,2.95
2022-08-03T08:05:02.160Z,2.85
2022-08-03T08:07:32.919Z,3.10
2022-08-03T08:10:00.808Z,2.80
2022-08-03T08:12:30.009Z,3.10
2022-08-03T08:14:57.987Z,2.92
2022-08-03T08:17:25.829Z,3.33
2022-08-03T08:19:54.829Z,3.10
2022-08-03T08:22:30.263Z,3.03
2022-08-03T08:25:01.815Z,3.20
2022-08-03T08:28:29.133Z,2.88
2022-08-03T08:30:20.131Z,2.97
2022-08-03T08:32:50.242Z,3.05
2022-08-03T08:35:18.468Z,2.63
2022-08-03T08:37:51.082Z,3.33
2022-08-03T08:40:22.916Z,2.75
2022-08-03T08:42:58.274Z,2.95
2022-08-03T08:45:26.528Z,2.50
2022-08-03T08:47:58.230Z,2.42
2022-08-03T08:50:28.905Z,2.88
2022-08-03T08:52:56.873Z,3.00
2022-08-03T08:55:24.834Z,2.60
2022-08-03T08:57:56.772Z,2.22
2022-08-03T09:00:24.650Z,2.50
2022-08-03T09:02:52.471Z,2.50
2022-08-03T09:05:27.831Z,2.72
2022-08-03T09:08:03.811Z,2.28
2022-08-03T09:10:31.748Z,2.55
2022-08-03T09:13:01.091Z,2.33
2022-08-03T09:15:31.498Z,2.55
2022-08-03T09:18:00.734Z,2.35
2022-08-03T09:20:29.648Z,2.53
2022-08-03T09:22:59.250Z,2.63
2022-08-03T09:25:35.538Z,2.95
2022-08-03T09:28:10.372Z,2.58
2022-08-03T09:30:38.768Z,3.03
2022-08-03T09:33:08.324Z,2.55
2022-08-03T09:35:53.701Z,2.88
2022-08-03T09:38:24.202Z,2.80
2022-08-03T09:40:55.940Z,3.20
2022-08-03T09:43:28.275Z,2.95
2022-08-03T09:46:03.513Z,2.88
2022-08-03T09:48:33.303Z,3.08
2022-08-03T09:51:12.506Z,2.95
2022-08-03T09:53:57.207Z,3.00
2022-08-03T09:56:38.401Z,2.92
2022-08-03T09:59:07.707Z,2.95
2022-08-03T10:01:37.314Z,3.03
2022-08-03T10:04:05.680Z,3.00
2022-08-03T10:06:33.548Z,2.70
2022-08-03T10:09:08.745Z,3.10
2022-08-03T10:11:41.231Z,3.10
2022-08-03T10:14:18.783Z,3.50
2022-08-03T10:16:47.480Z,3.20
2022-08-03T10:19:15.846Z,3.08
2022-08-03T10:21:47.367Z,3.45
2022-08-03T10:24:15.338Z,3.35
2022-08-03T10:26:49.958Z,2.90
2022-08-03T10:29:25.474Z,3.38
2022-08-03T10:31:57.616Z,3.38
2022-08-03T10:34:27.402Z,3.20
2022-08-03T10:36:58.356Z,3.00
2022-08-03T10:39:28.748Z,3.22
2022-08-03T10:41:58.248Z,3.25
2022-08-03T10:44:27.629Z,3.20
2022-08-03T10:46:55.608Z,3.30
2022-08-03T10:49:34.301Z,3.28
2022-08-03T10:52:02.929Z,3.33
2022-08-03T10:55:00.147Z,3.00
2022-08-03T10:57:48.764Z,3.28
2022-08-03T11:00:18.747Z,3.08
2022-08-03T11:03:16.841Z,2.97
2022-08-03T11:05:47.084Z,2.97
2022-08-03T11:08:29.189Z,3.08
2022-08-03T11:10:59.194Z,3.03
2022-08-03T11:13:31.050Z,3.00
2022-08-03T11:16:03.931Z,2.97
2022-08-03T11:18:34.466Z,2.70
2022-08-03T11:21:03.951Z,2.95
2022-08-03T11:24:04.747Z,3.03
2022-08-03T11:26:30.524Z,2.63
2022-08-03T11:29:23.233Z,2.75
2022-08-03T11:31:53.103Z,2.38
2022-08-03T11:34:21.153Z,2.50
2022-08-03T11:37:21.397Z,2.17
2022-08-03T11:39:54.650Z,2.63
2022-08-03T11:42:48.011Z,2.33
2022-08-03T11:45:16.334Z,2.33
2022-08-03T11:47:50.543Z,2.58
2022-08-03T11:50:21.449Z,2.50
2022-08-03T11:52:50.004Z,2.55
2022-08-03T11:55:20.519Z,2.20
2022-08-03T11:59:00.776Z,2.08
2022-08-03T12:00:36.934Z,2.40
2022-08-03T12:03:08.817Z,2.45
2022-08-03T12:05:41.034Z,2.25
2022-08-03T12:08:09.625Z,2.40
2022-08-03T12:10:37.944Z,2.30
2022-08-03T12:14:05.773Z,2.08
2022-08-03T12:15:59.318Z,2.05
2022-08-03T12:18:28.626Z,1.80
2022-08-03T12:21:06.000Z,1.73
2022-08-03T12:23:37.641Z,2.08
2022-08-03T12:26:06.917Z,1.80
2022-08-03T12:28:37.728Z,1.98
2022-08-03T12:31:07.451Z,1.98
2022-08-03T12:33:56.519Z,1.63
2022-08-03T12:36:24.420Z,1.98
2022-08-03T12:38:56.224Z,2.05
2022-08-03T12:41:29.517Z,1.98
2022-08-03T12:43:57.620Z,1.98
2022-08-03T12:46:31.198Z,1.80
2022-08-03T12:49:01.500Z,2.10
2022-08-03T12:51:29.555Z,2.10
2022-08-03T12:53:58.016Z,1.73
2022-08-03T12:56:25.873Z,1.95
2022-08-03T12:58:54.201Z,2.00
2022-08-03T13:01:24.450Z,2.47
2022-08-03T13:03:54.610Z,1.67
2022-08-03T13:06:25.704Z,2.40
2022-08-03T13:09:03.487Z,1.95
2022-08-03T13:11:55.681Z,2.10
2022-08-03T13:14:20.149Z,2.00
2022-08-03T13:16:49.073Z,2.15
2022-08-03T13:19:17.015Z,2.13
2022-08-03T13:21:53.406Z,2.22
2022-08-03T13:24:31.973Z,2.20
2022-08-03T13:27:00.105Z,2.30
2022-08-03T13:29:28.070Z,1.90
2022-08-03T13:31:55.937Z,2.20
2022-08-03T13:34:24.186Z,1.80
2022-08-03T13:37:08.450Z,2.40
2022-08-03T13:39:57.829Z,2.20
2022-08-03T13:42:25.238Z,1.80
2022-08-03T13:44:53.204Z,1.52
2022-08-03T13:47:22.124Z,2.08
2022-08-03T13:50:00.249Z,2.20
2022-08-03T13:52:32.451Z,1.83
2022-08-03T13:55:00.711Z,1.90
2022-08-03T13:58:04.085Z,1.98
2022-08-03T14:00:26.527Z,1.73
2022-08-03T14:03:02.787Z,1.70
2022-08-03T14:05:32.686Z,2.10
2022-08-03T14:08:04.767Z,1.80
2022-08-03T14:10:33.917Z,2.10
2022-08-03T14:13:01.780Z,1.60
2022-08-03T14:15:30.025Z,2.00
2022-08-03T14:17:58.504Z,1.75
2022-08-03T14:20:37.689Z,1.70
2022-08-03T14:23:16.116Z,1.98
2022-08-03T14:25:52.579Z,1.98
2022-08-03T14:28:22.586Z,1.90
2022-08-03T14:30:52.036Z,2.05
2022-08-03T14:33:19.913Z,1.75
2022-08-03T14:35:47.915Z,2.33
2022-08-03T14:38:17.467Z,2.10
2022-08-03T14:40:45.554Z,1.60
2022-08-03T14:43:13.688Z,2.50
2022-08-03T14:45:41.537Z,1.65
2022-08-03T14:50:29.228Z,1.67
2022-08-03T14:50:57.471Z,1.90
2022-08-03T14:53:26.683Z,1.85
2022-08-03T14:55:54.576Z,6.38
2022-08-03T14:58:22.804Z,1.38
2022-08-03T15:00:51.248Z,2.13
2022-08-03T15:03:20.481Z,1.90
2022-08-03T15:05:48.557Z,2.03
2022-08-03T15:08:16.501Z,2.08
2022-08-03T15:10:45.762Z,1.92
2022-08-03T15:13:13.750Z,2.22
2022-08-03T15:15:41.976Z,2.30
2022-08-03T15:18:09.883Z,1.80
2022-08-03T15:20:45.552Z,2.25
2022-08-03T15:23:14.513Z,2.00
2022-08-03T15:26:27.970Z,1.80
2022-08-03T15:28:31.817Z,1.80
2022-08-03T15:30:59.698Z,1.63
2022-08-03T15:33:27.828Z,2.20
2022-08-03T15:35:56.229Z,2.25
2022-08-03T15:38:26.141Z,2.20
2022-08-03T15:40:55.482Z,2.05
2022-08-03T15:43:23.945Z,1.75
2022-08-03T15:48:41.032Z,1.83
2022-08-03T15:51:09.084Z,1.90
2022-08-03T15:53:37.036Z,2.17
2022-08-03T15:56:10.433Z,1.48
2022-08-03T15:58:59.633Z,2.35
2022-08-03T16:01:29.507Z,1.50
2022-08-03T16:03:57.463Z,2.03
2022-08-03T16:06:29.790Z,2.15
2022-08-03T16:09:03.712Z,2.00
2022-08-03T16:11:32.749Z,2.90
2022-08-03T16:14:12.904Z,2.00
2022-08-03T16:16:49.837Z,2.00
2022-08-03T16:19:17.864Z,2.22
2022-08-03T16:21:48.795Z,1.98
2022-08-03T16:24:25.866Z,2.08
2022-08-03T16:26:55.851Z,1.95
2022-08-03T16:29:24.208Z,2.17
2022-08-03T16:31:53.597Z,2.20
2022-08-03T16:34:21.634Z,2.10
2022-08-03T16:36:49.476Z,1.90
2022-08-03T16:39:17.573Z,4.25
2022-08-03T16:41:53.635Z,1.70
2022-08-03T16:44:29.639Z,2.25
2022-08-03T16:46:58.941Z,2.13
2022-08-03T16:49:55.252Z,3.35
2022-08-03T16:52:16.460Z,1.60
2022-08-03T16:54:52.686Z,1.55
2022-08-03T16:57:56.530Z,2.03
2022-08-03T17:00:11.750Z,1.45
2022-08-03T17:02:48.220Z,2.03
2022-08-03T17:05:16.413Z,1.50
2022-08-03T17:10:22.065Z,1.70
2022-08-03T17:12:55.280Z,1.83
2022-08-03T17:15:38.158Z,1.17
2022-08-03T17:18:12.475Z,1.55
2022-08-03T17:20:42.588Z,1.60
2022-08-03T17:23:34.833Z,1.42
2022-08-03T17:26:04.785Z,1.50
2022-08-03T17:28:50.029Z,2.38
2022-08-03T17:31:31.843Z,2.58
2022-08-03T17:34:04.621Z,2.20
2022-08-03T17:37:02.780Z,1.60
2022-08-03T17:39:36.191Z,2.45
2022-08-03T17:45:02.320Z,1.30
2022-08-03T17:47:42.003Z,2.20
2022-08-03T17:50:24.436Z,1.50
2022-08-03T17:53:00.765Z,1.38
2022-08-03T17:55:55.443Z,1.30
2022-08-03T17:58:20.917Z,1.05
2022-08-03T18:01:02.810Z,1.70
2022-08-03T18:03:57.773Z,1.67
2022-08-03T18:06:28.764Z,2.00
2022-08-03T18:08:57.431Z,1.40
2022-08-03T18:11:35.608Z,2.05
2022-08-03T18:16:57.915Z,1.52
2022-08-03T18:20:03.507Z,1.63
2022-08-03T18:22:17.944Z,1.50
2022-08-03T18:24:46.775Z,1.30
2022-08-03T18:27:16.878Z,1.50
2022-08-03T18:29:47.720Z,1.48
2022-08-03T18:32:16.899Z,1.35
2022-08-03T18:34:53.819Z,1.50
2022-08-03T18:37:25.169Z,1.73
2022-08-03T18:39:55.010Z,1.50
2022-08-03T18:45:14.690Z,1.77
2022-08-03T18:47:53.077Z,1.80
2022-08-03T18:50:26.013Z,1.33
2022-08-03T18:53:01.372Z,2.20
2022-08-03T18:55:33.029Z,1.75
2022-08-03T18:58:07.391Z,1.40
2022-08-03T19:00:54.305Z,1.92
2022-08-03T19:03:24.587Z,2.35
2022-08-03T19:06:03.030Z,4.25
2022-08-03T19:08:47.808Z,2.17
2022-08-03T19:11:18.956Z,2.30
2022-08-03T19:13:50.183Z,1.95
2022-08-03T19:16:22.195Z,1.77
2022-08-03T19:18:50.704Z,1.90
2022-08-03T19:21:19.817Z,1.75
2022-08-03T19:23:51.746Z,1.73
2022-08-03T19:26:30.386Z,1.75
2022-08-03T19:28:59.347Z,1.60
2022-08-03T19:31:30.838Z,2.42
2022-08-03T19:34:01.174Z,2.20
2022-08-03T19:36:32.942Z,1.70
2022-08-03T19:39:09.255Z,1.80
2022-08-03T19:41:42.038Z,1.40
2022-08-03T19:44:11.646Z,1.85
2022-08-03T19:46:43.007Z,1.83
2022-08-03T19:49:15.253Z,2.47
2022-08-03T19:52:01.026Z,2.40
2022-08-03T19:54:45.457Z,2.10
2022-08-03T19:57:20.787Z,1.80
2022-08-03T19:59:50.718Z,1.75
2022-08-03T20:02:26.526Z,1.63
2022-08-03T20:04:55.314Z,2.00
2022-08-03T20:07:23.860Z,1.80
2022-08-03T20:09:54.540Z,4.85
2022-08-03T20:12:26.636Z,3.35
2022-08-03T20:14:56.601Z,2.10
2022-08-03T20:20:12.324Z,3.30
2022-08-03T20:22:43.059Z,2.45
2022-08-03T20:25:16.265Z,3.25
2022-08-03T20:28:08.046Z,2.30
2022-08-03T20:30:37.144Z,1.92
2022-08-03T20:33:05.390Z,2.03
2022-08-03T20:35:33.849Z,2.20
2022-08-03T20:38:01.840Z,2.40
2022-08-03T20:40:31.180Z,3.15
2022-08-03T20:42:59.780Z,1.85
2022-08-03T20:45:59.579Z,2.25
2022-08-03T20:48:21.972Z,3.15
2022-08-03T20:50:50.201Z,2.30
2022-08-03T20:53:57.410Z,2.55
2022-08-03T20:56:07.460Z,2.80
2022-08-03T20:58:35.449Z,2.45
2022-08-03T21:01:04.116Z,2.53
2022-08-03T21:03:41.122Z,2.30
2022-08-03T21:06:27.976Z,2.25
2022-08-03T21:09:00.246Z,2.92
2022-08-03T21:12:54.738Z,1.70
2022-08-03T21:12:57.247Z,1.73
2022-08-03T21:12:58.871Z,1.60
2022-08-03T21:13:03.793Z,3.13
2022-08-03T21:13:08.184Z,2.72
2022-08-03T21:14:25.821Z,3.38
2022-08-03T21:16:53.798Z,2.80
2022-08-03T21:19:22.715Z,2.92
2022-08-03T21:21:50.771Z,2.78
2022-08-03T21:24:22.855Z,2.90
2022-08-03T21:26:52.610Z,3.10
2022-08-03T21:29:20.710Z,3.17
2022-08-03T21:31:48.862Z,3.00
2022-08-03T21:34:16.915Z,3.30
2022-08-03T21:36:45.038Z,3.15
2022-08-03T21:39:13.223Z,3.30
2022-08-03T21:41:41.516Z,3.00
2022-08-03T21:44:10.999Z,2.83
2022-08-03T21:46:40.547Z,2.88
2022-08-03T21:50:07.081Z,3.20
2022-08-03T21:51:58.698Z,3.20
2022-08-03T21:54:29.141Z,2.92
2022-08-03T21:56:57.138Z,3.13
2022-08-03T21:59:26.960Z,2.50
2022-08-03T22:01:58.770Z,3.10
2022-08-03T22:04:50.410Z,3.08
2022-08-03T22:07:15.604Z,3.30
2022-08-03T22:09:50.991Z,2.92
2022-08-03T22:12:21.843Z,3.38
2022-08-03T22:14:53.577Z,3.10
2022-08-03T22:17:54.554Z,2.97
2022-08-03T22:20:19.479Z,3.60
2022-08-03T22:22:55.309Z,3.40
2022-08-03T22:25:25.826Z,3.53
2022-08-03T22:27:53.972Z,3.53
2022-08-03T22:30:23.228Z,3.78
2022-08-03T22:32:51.542Z,3.17
2022-08-03T22:35:19.496Z,3.03
2022-08-03T22:37:47.477Z,3.35
2022-08-03T22:40:16.390Z,3.30
2022-08-03T22:42:45.794Z,3.60
2022-08-03T22:46:06.910Z,3.10
2022-08-03T22:48:03.163Z,2.90
2022-08-03T22:50:33.965Z,3.40
2022-08-03T22:53:01.945Z,3.20
2022-08-03T22:55:30.038Z,3.05
2022-08-03T22:57:57.881Z,2.80
2022-08-03T23:00:26.052Z,3.10
2022-08-03T23:02:55.049Z,3.10
2022-08-03T23:06:02.460Z,2.70
2022-08-03T23:08:14.530Z,2.97
2022-08-03T23:10:46.461Z,2.63
2022-08-03T23:13:15.416Z,2.97
2022-08-03T23:15:43.429Z,3.10
2022-08-03T23:18:11.244Z,3.13
2022-08-03T23:20:40.846Z,3.10
2022-08-03T23:23:12.602Z,3.42
2022-08-03T23:25:41.781Z,3.03
2022-08-03T23:28:10.665Z,2.72
2022-08-03T23:30:38.686Z,3.30
2022-08-03T23:33:06.646Z,3.10
2022-08-03T23:36:28.528Z,3.25
2022-08-03T23:38:41.884Z,3.03
2022-08-03T23:41:10.153Z,3.10
2022-08-03T23:43:51.044Z,2.88
2022-08-03T23:46:22.307Z,2.88
2022-08-03T23:48:51.200Z,3.42
2022-08-03T23:51:34.745Z,2.88
2022-08-03T23:54:10.875Z,3.58
2022-08-03T23:56:43.684Z,2.95
2022-08-03T23:59:15.048Z,3.53
